Pledger, Texas
Current Conditions -  °F | °C
As of 4:15 PM on Saturday 25 Oct 2014 (Local Time) from KARM Reporting Station
Clear Clear  
Wind Chill: 84°   Ceiling: Unl
Heat Index: 84°   Visibility: 10mi
Dew Point: 57°   Wind: 6mph
Humidity: 39%   Direction: 80°E
Pressure: 30.1"   Gusts: NA
Location:  29.18°N, 95.91°W
Report Text: KARM 252115Z AUTO 08005KT 10SM CLR 29/14 A3010 RMK AO2 T02890137
Loading
Personal Weather Stations






























Interactive Weather Map
Tropical Storm Tracking
New forecast layout! Learn more

10-Day Weather Forecast

Advertisements
Track Severe Weather on mobile